createdAt,value
2018-05-10T00:00:13.883Z,100096.27
2018-05-10T00:02:41.506Z,100099.48
2018-05-10T00:05:09.223Z,100106.96
2018-05-10T00:07:36.820Z,100100.77
2018-05-10T00:10:04.599Z,100100.16
2018-05-10T00:12:32.198Z,100104.38
2018-05-10T00:14:59.848Z,100111.00
2018-05-10T00:17:27.442Z,100113.41
2018-05-10T00:19:55.121Z,100114.83
2018-05-10T00:22:22.843Z,100110.93
2018-05-10T00:24:50.419Z,100119.88
2018-05-10T00:27:18.048Z,100121.20
2018-05-10T00:29:45.666Z,100127.45
2018-05-10T00:32:13.358Z,100124.91
2018-05-10T00:34:40.972Z,100114.69
2018-05-10T00:37:08.622Z,100122.55
2018-05-10T00:39:36.250Z,100139.33
2018-05-10T00:42:04.003Z,100131.61
2018-05-10T00:44:31.617Z,100134.23
2018-05-10T00:46:59.313Z,100138.13
2018-05-10T00:49:26.909Z,100139.56
2018-05-10T00:51:54.673Z,100140.86
2018-05-10T00:54:33.899Z,100144.03
2018-05-10T00:57:01.604Z,100140.92
2018-05-10T00:59:29.244Z,100147.52
2018-05-10T01:01:56.897Z,100149.28
2018-05-10T01:04:24.508Z,100146.59
2018-05-10T01:06:52.169Z,100146.22
2018-05-10T01:09:19.812Z,100154.96
2018-05-10T01:11:47.536Z,100149.25
2018-05-10T01:14:15.185Z,100144.38
2018-05-10T01:16:42.803Z,100144.41
2018-05-10T01:19:10.485Z,100143.13
2018-05-10T01:21:38.089Z,100148.45
2018-05-10T01:24:05.744Z,100150.25
2018-05-10T01:26:33.374Z,100151.66
2018-05-10T01:29:01.025Z,100156.91
2018-05-10T01:31:28.637Z,100163.09
2018-05-10T01:33:56.298Z,100158.67
2018-05-10T01:36:23.906Z,100156.06
2018-05-10T01:38:51.558Z,100157.81
2018-05-10T01:41:19.203Z,100161.38
2018-05-10T01:43:46.889Z,100160.06
2018-05-10T01:46:14.486Z,100155.70
2018-05-10T01:48:42.125Z,100158.32
2018-05-10T01:51:09.723Z,100157.85
2018-05-10T01:53:37.364Z,100163.11
2018-05-10T01:56:05.022Z,100172.31
2018-05-10T01:58:32.762Z,100167.95
2018-05-10T02:01:00.394Z,100175.81
2018-05-10T02:03:28.063Z,100171.42
2018-05-10T02:05:55.711Z,100179.77
2018-05-10T02:08:23.367Z,100178.06
2018-05-10T02:10:51.088Z,100181.16
2018-05-10T02:13:18.785Z,100182.93
2018-05-10T02:15:46.509Z,100189.09
2018-05-10T02:18:14.119Z,100195.22
2018-05-10T02:20:41.802Z,100190.84
2018-05-10T02:23:10.537Z,100193.48
2018-05-10T02:25:39.211Z,100184.27
2018-05-10T02:28:08.090Z,100192.61
2018-05-10T02:30:35.821Z,100191.31
2018-05-10T02:33:03.723Z,100196.09
2018-05-10T02:35:31.514Z,100193.48
2018-05-10T02:37:59.428Z,100197.86
2018-05-10T02:40:27.085Z,100198.75
2018-05-10T02:42:54.712Z,100203.95
2018-05-10T02:45:22.407Z,100203.08
2018-05-10T02:47:50.080Z,100209.17
2018-05-10T02:50:17.734Z,100218.36
2018-05-10T02:52:45.362Z,100220.11
2018-05-10T02:55:13.226Z,100219.66
2018-05-10T02:57:40.992Z,100223.15
2018-05-10T03:00:08.609Z,100229.26
2018-05-10T03:02:36.256Z,100226.21
2018-05-10T03:05:03.861Z,100231.43
2018-05-10T03:07:31.506Z,100236.66
2018-05-10T03:09:59.117Z,100228.77
2018-05-10T03:12:26.811Z,100238.23
2018-05-10T03:14:54.446Z,100242.63
2018-05-10T03:17:22.100Z,100243.14
2018-05-10T03:19:49.710Z,100249.26
2018-05-10T03:22:17.416Z,100246.12
2018-05-10T03:24:45.031Z,100248.34
2018-05-10T03:27:12.844Z,100250.56
2018-05-10T03:29:40.453Z,100252.31
2018-05-10T03:32:08.125Z,100249.98
2018-05-10T03:34:35.725Z,100250.39
2018-05-10T03:37:03.389Z,100258.34
2018-05-10T03:39:31.109Z,100256.95
2018-05-10T03:41:58.782Z,100255.56
2018-05-10T03:44:26.432Z,100257.41
2018-05-10T03:46:54.105Z,100252.08
2018-05-10T03:49:21.711Z,100254.67
2018-05-10T03:51:49.546Z,100258.06
2018-05-10T03:54:17.184Z,100260.66
2018-05-10T03:56:44.871Z,100266.33
2018-05-10T03:59:12.594Z,100274.75
2018-05-10T04:01:40.221Z,100277.32
2018-05-10T04:07:23.001Z,100282.42
2018-05-10T04:12:49.868Z,100291.34
2018-05-10T04:15:17.476Z,100292.13
2018-05-10T04:17:45.097Z,100298.65
2018-05-10T04:20:12.805Z,100302.97
2018-05-10T04:22:40.416Z,100305.13
2018-05-10T04:25:08.076Z,100307.24
2018-05-10T04:27:35.740Z,100314.08
2018-05-10T04:30:03.463Z,100314.98
2018-05-10T04:32:31.005Z,100323.72
2018-05-10T04:34:58.746Z,100321.55
2018-05-10T04:37:26.377Z,100325.07
2018-05-10T04:39:54.031Z,100326.34
2018-05-10T04:42:21.776Z,100328.11
2018-05-10T04:44:49.285Z,100337.83
2018-05-10T04:47:16.912Z,100338.33
2018-05-10T04:49:44.832Z,100345.68
2018-05-10T04:52:12.432Z,100350.91
2018-05-10T04:54:40.077Z,100350.42
2018-05-10T04:57:07.762Z,100352.68
2018-05-10T04:59:35.433Z,100361.80
2018-05-10T05:02:06.765Z,100363.31
2018-05-10T05:04:34.414Z,100360.62
2018-05-10T05:07:05.649Z,100359.30
2018-05-10T05:09:33.510Z,100371.03
2018-05-10T05:12:01.362Z,100369.69
2018-05-10T05:14:29.092Z,100360.78
2018-05-10T05:16:56.766Z,100368.19
2018-05-10T05:19:24.528Z,100367.54
2018-05-10T05:21:52.216Z,100376.34
2018-05-10T05:24:19.890Z,100380.23
2018-05-10T05:26:47.838Z,100375.56
2018-05-10T05:29:15.473Z,100391.58
2018-05-10T05:31:43.119Z,100392.06
2018-05-10T05:34:10.873Z,100386.14
2018-05-10T05:36:38.578Z,100379.11
2018-05-10T05:39:06.190Z,100383.72
2018-05-10T05:41:33.910Z,100393.42
2018-05-10T05:44:02.368Z,100400.45
2018-05-10T05:46:30.543Z,100398.58
2018-05-10T05:48:58.428Z,100412.47
2018-05-10T05:51:26.150Z,100418.14
2018-05-10T05:53:53.853Z,100419.48
2018-05-10T05:56:21.474Z,100423.00
2018-05-10T05:58:49.448Z,100425.09
2018-05-10T06:01:19.154Z,100435.98
2018-05-10T06:03:47.121Z,100440.87
2018-05-10T06:06:14.856Z,100440.03
2018-05-10T06:08:42.938Z,100439.69
2018-05-10T06:11:10.681Z,100445.82
2018-05-10T06:13:38.418Z,100455.88
2018-05-10T06:16:06.057Z,100454.80
2018-05-10T06:18:33.703Z,100455.79
2018-05-10T06:21:01.330Z,100460.44
2018-05-10T06:23:29.249Z,100459.87
2018-05-10T06:25:56.982Z,100463.33
2018-05-10T06:28:24.695Z,100467.39
2018-05-10T06:30:52.373Z,100464.31
2018-05-10T06:33:19.986Z,100467.48
2018-05-10T06:35:47.745Z,100463.00
2018-05-10T06:38:15.521Z,100462.28
2018-05-10T06:40:43.326Z,100451.73
2018-05-10T06:43:11.002Z,100459.56
2018-05-10T06:45:38.695Z,100460.00
2018-05-10T06:48:06.433Z,100464.16
2018-05-10T06:50:34.243Z,100457.77
2018-05-10T06:53:02.999Z,100457.30
2018-05-10T06:55:30.722Z,100456.33
2018-05-10T06:57:58.467Z,100460.39
2018-05-10T07:00:26.174Z,100460.04
2018-05-10T07:02:54.476Z,100456.06
2018-05-10T07:05:22.257Z,100467.68
2018-05-10T07:07:49.886Z,100460.69
2018-05-10T07:10:17.576Z,100466.44
2018-05-10T07:12:45.245Z,100472.76
2018-05-10T07:15:12.912Z,100469.88
2018-05-10T07:17:40.590Z,100470.75
2018-05-10T07:20:08.166Z,100469.81
2018-05-10T07:22:35.874Z,100471.68
2018-05-10T07:25:03.783Z,100473.44
2018-05-10T07:27:31.528Z,100477.26
2018-05-10T07:29:59.226Z,100472.62
2018-05-10T07:32:26.866Z,100473.46
2018-05-10T07:34:54.517Z,100466.98
2018-05-10T07:37:22.482Z,100474.64
2018-05-10T07:39:50.229Z,100477.41
2018-05-10T07:42:17.925Z,100474.66
2018-05-10T07:44:45.567Z,100475.59
2018-05-10T07:47:13.334Z,100481.67
2018-05-10T07:49:40.944Z,100488.24
2018-05-10T07:52:08.643Z,100492.54
2018-05-10T07:54:36.314Z,100496.87
2018-05-10T07:57:04.127Z,100501.73
2018-05-10T07:59:31.795Z,100497.97
2018-05-10T08:01:59.455Z,100497.61
2018-05-10T08:04:27.319Z,100504.66
2018-05-10T08:06:55.029Z,100501.55
2018-05-10T08:09:23.597Z,100508.53
2018-05-10T08:11:51.382Z,100513.84
2018-05-10T08:14:19.213Z,100522.59
2018-05-10T08:16:46.832Z,100525.42
2018-05-10T08:19:14.722Z,100528.15
2018-05-10T08:21:42.351Z,100537.80
2018-05-10T08:24:10.282Z,100537.71
2018-05-10T08:26:38.002Z,100543.72
2018-05-10T08:29:06.079Z,100543.21
2018-05-10T08:31:34.042Z,100548.52
2018-05-10T08:34:01.730Z,100552.89
2018-05-10T08:36:29.378Z,100553.33
2018-05-10T08:38:57.238Z,100555.98
2018-05-10T08:41:25.085Z,100563.03
2018-05-10T08:43:52.992Z,100566.55
2018-05-10T08:46:21.555Z,100568.28
2018-05-10T08:48:50.455Z,100579.72
2018-05-10T08:51:18.225Z,100579.22
2018-05-10T08:53:45.922Z,100587.48
2018-05-10T08:56:13.899Z,100588.30
2018-05-10T08:58:41.701Z,100597.02
2018-05-10T09:01:09.626Z,100606.69
2018-05-10T09:03:37.273Z,100604.00
2018-05-10T09:06:04.949Z,100609.34
2018-05-10T09:08:32.578Z,100608.66
2018-05-10T09:11:00.316Z,100610.73
2018-05-10T09:13:27.957Z,100620.81
2018-05-10T09:15:55.625Z,100621.25
2018-05-10T09:18:23.287Z,100621.31
2018-05-10T09:20:51.156Z,100620.02
2018-05-10T09:23:18.812Z,100628.13
2018-05-10T09:25:46.449Z,100631.03
2018-05-10T09:28:14.101Z,100648.38
2018-05-10T09:30:41.735Z,100647.50
2018-05-10T09:33:09.384Z,100651.38
2018-05-10T09:35:37.071Z,100655.22
2018-05-10T09:38:04.779Z,100673.28
2018-05-10T09:40:32.475Z,100676.28
2018-05-10T09:43:00.116Z,100686.97
2018-05-10T09:45:27.732Z,100681.12
2018-05-10T09:47:55.384Z,100686.82
2018-05-10T09:50:23.009Z,100692.03
2018-05-10T09:52:50.642Z,100698.18
2018-05-10T09:55:18.241Z,100701.27
2018-05-10T09:57:45.923Z,100709.33
2018-05-10T10:00:18.966Z,100713.77
2018-05-10T10:02:46.645Z,100706.66
2018-05-10T10:05:14.312Z,100711.52
2018-05-10T10:07:42.029Z,100710.80
2018-05-10T10:10:09.665Z,100712.80
2018-05-10T10:12:37.285Z,100722.21
2018-05-10T10:15:05.247Z,100725.03
2018-05-10T10:17:33.219Z,100740.22
2018-05-10T10:20:00.863Z,100733.97
2018-05-10T10:22:28.466Z,100744.18
2018-05-10T10:24:56.189Z,100743.24
2018-05-10T10:27:23.828Z,100761.48
2018-05-10T10:29:51.498Z,100759.53
2018-05-10T10:32:19.353Z,100763.97
2018-05-10T10:34:47.215Z,100776.16
2018-05-10T10:37:14.818Z,100788.41
2018-05-10T10:39:42.551Z,100776.02
2018-05-10T10:42:10.339Z,100784.92
2018-05-10T10:44:38.218Z,100786.63
2018-05-10T10:47:05.901Z,100788.30
2018-05-10T10:49:33.733Z,100804.20
2018-05-10T10:52:01.526Z,100804.88
2018-05-10T10:54:29.374Z,100810.47
2018-05-10T10:56:57.206Z,100810.70
2018-05-10T10:59:24.919Z,100820.13
2018-05-10T11:01:53.611Z,100827.70
2018-05-10T11:04:21.248Z,100818.28
2018-05-10T11:06:49.139Z,100827.86
2018-05-10T11:09:16.816Z,100836.36
2018-05-10T11:11:44.495Z,100839.23
2018-05-10T11:14:12.153Z,100837.89
2018-05-10T11:16:39.844Z,100838.89
2018-05-10T11:19:07.609Z,100836.70
2018-05-10T11:21:35.316Z,100838.94
2018-05-10T11:24:03.208Z,100845.52
2018-05-10T11:26:31.302Z,100845.27
2018-05-10T11:29:00.833Z,100843.47
2018-05-10T11:31:28.588Z,100848.83
2018-05-10T11:33:56.514Z,100851.97
2018-05-10T11:36:24.259Z,100862.22
2018-05-10T11:38:52.021Z,100858.51
2018-05-10T11:41:19.700Z,100863.97
2018-05-10T11:43:47.546Z,100872.25
2018-05-10T11:46:15.592Z,100877.60
2018-05-10T11:48:43.772Z,100874.84
2018-05-10T11:51:11.389Z,100882.59
2018-05-10T11:53:39.428Z,100888.35
2018-05-10T11:56:07.055Z,100885.55
2018-05-10T11:58:34.726Z,100892.97
2018-05-10T12:01:02.366Z,100894.75
2018-05-10T12:03:30.071Z,100895.77
2018-05-10T12:05:57.766Z,100887.78
2018-05-10T12:08:25.655Z,100887.48
2018-05-10T12:10:53.424Z,100893.13
2018-05-10T12:13:21.093Z,100888.00
2018-05-10T12:15:51.079Z,100891.74
2018-05-10T12:18:19.456Z,100886.69
2018-05-10T12:20:47.313Z,100895.28
2018-05-10T12:23:16.219Z,100902.64
2018-05-10T12:25:43.877Z,100904.39
2018-05-10T12:28:11.624Z,100914.56
2018-05-10T12:30:39.245Z,100916.80
2018-05-10T12:33:07.232Z,100912.62
2018-05-10T12:36:02.063Z,100913.91
2018-05-10T12:38:29.857Z,100921.48
2018-05-10T12:40:59.501Z,100921.53
2018-05-10T12:43:27.582Z,100921.64
2018-05-10T12:48:41.057Z,100923.62
2018-05-10T12:51:08.994Z,100919.02
2018-05-10T12:53:36.715Z,100921.75
2018-05-10T12:56:04.517Z,100923.41
2018-05-10T12:58:32.208Z,100923.55
2018-05-10T13:01:01.135Z,100920.28
2018-05-10T13:03:28.791Z,100924.73
2018-05-10T13:05:56.606Z,100929.66
2018-05-10T13:08:24.297Z,100916.23
2018-05-10T13:10:52.022Z,100923.20
2018-05-10T13:13:19.690Z,100926.88
2018-05-10T13:15:47.539Z,100922.07
2018-05-10T13:18:15.346Z,100924.25
2018-05-10T13:20:43.004Z,100921.13
2018-05-10T13:23:10.629Z,100932.02
2018-05-10T13:25:38.323Z,100937.89
2018-05-10T13:28:06.006Z,100939.20
2018-05-10T13:30:33.666Z,100941.34
2018-05-10T13:33:01.359Z,100933.62
2018-05-10T13:35:29.060Z,100938.56
2018-05-10T13:37:56.706Z,100941.19
2018-05-10T13:40:24.350Z,100943.80
2018-05-10T13:42:51.961Z,100945.63
2018-05-10T13:45:19.732Z,100942.40
2018-05-10T13:47:47.412Z,100952.67
2018-05-10T13:50:15.101Z,100950.45
2018-05-10T13:52:42.757Z,100949.94
2018-05-10T13:55:10.377Z,100952.84
2018-05-10T13:57:39.939Z,100954.16
2018-05-10T14:00:07.644Z,100960.23
2018-05-10T14:02:35.665Z,100959.53
2018-05-10T14:05:03.340Z,100959.17
2018-05-10T14:07:31.038Z,100967.98
2018-05-10T14:10:00.390Z,100964.02
2018-05-10T14:12:28.108Z,100964.41
2018-05-10T14:14:55.788Z,100965.95
2018-05-10T14:17:23.444Z,100964.39
2018-05-10T14:19:51.353Z,100963.20
2018-05-10T14:22:19.053Z,100958.09
2018-05-10T14:24:46.684Z,100962.17
2018-05-10T14:27:14.349Z,100961.22
2018-05-10T14:29:42.069Z,100966.73
2018-05-10T14:32:09.781Z,100961.11
2018-05-10T14:34:37.410Z,100960.31
2018-05-10T14:37:05.186Z,100966.61
2018-05-10T14:39:33.027Z,100973.88
2018-05-10T14:42:00.690Z,100965.97
2018-05-10T14:44:28.470Z,100967.35
2018-05-10T14:46:56.316Z,100973.53
2018-05-10T14:49:24.017Z,100971.20
2018-05-10T14:51:51.668Z,100963.30
2018-05-10T14:54:19.343Z,100964.31
2018-05-10T14:56:47.018Z,100964.55
2018-05-10T14:59:14.688Z,100964.83
2018-05-10T15:01:42.308Z,100971.03
2018-05-10T15:04:10.032Z,100965.52
2018-05-10T15:06:37.648Z,100970.84
2018-05-10T15:09:05.449Z,100971.30
2018-05-10T15:11:33.137Z,100974.38
2018-05-10T15:14:00.790Z,100974.79
2018-05-10T15:16:28.404Z,100968.55
2018-05-10T15:18:56.175Z,100966.69
2018-05-10T15:21:25.389Z,100971.42
2018-05-10T15:23:53.192Z,100972.00
2018-05-10T15:26:20.926Z,100980.08
2018-05-10T15:28:50.250Z,100977.45
2018-05-10T15:31:17.975Z,100976.61
2018-05-10T15:33:45.606Z,100987.11
2018-05-10T15:36:13.293Z,100981.86
2018-05-10T15:38:40.951Z,100985.79
2018-05-10T15:41:08.671Z,100989.77
2018-05-10T15:43:37.282Z,100991.56
2018-05-10T15:46:04.915Z,100994.99
2018-05-10T15:48:32.594Z,100992.58
2018-05-10T15:51:00.254Z,100993.59
2018-05-10T15:53:27.958Z,100997.20
2018-05-10T15:55:55.611Z,101005.15
2018-05-10T15:58:23.233Z,101005.42
2018-05-10T16:00:50.890Z,101004.41
2018-05-10T16:03:18.570Z,101016.91
2018-05-10T16:05:46.164Z,101019.54
2018-05-10T16:08:13.807Z,101025.80
2018-05-10T16:10:41.409Z,101018.66
2018-05-10T16:13:09.065Z,101035.58
2018-05-10T16:15:36.848Z,101036.84
2018-05-10T16:18:04.481Z,101039.34
2018-05-10T16:20:32.094Z,101041.55
2018-05-10T16:22:59.753Z,101049.77
2018-05-10T16:25:27.387Z,101050.55
2018-05-10T16:27:55.068Z,101055.03
2018-05-10T16:30:22.811Z,101058.75
2018-05-10T16:32:50.579Z,101063.59
2018-05-10T16:35:18.136Z,101073.64
2018-05-10T16:37:45.788Z,101071.40
2018-05-10T16:40:13.400Z,101075.76
2018-05-10T16:42:41.130Z,101080.50
2018-05-10T16:45:08.730Z,101085.30
2018-05-10T16:47:36.570Z,101090.08
2018-05-10T16:50:04.161Z,101100.92
2018-05-10T16:52:32.070Z,101097.84
2018-05-10T16:54:59.673Z,101102.21
2018-05-10T16:57:27.296Z,101106.09
2018-05-10T16:59:54.960Z,101110.09
2018-05-10T17:02:23.067Z,101115.20
2018-05-10T17:04:50.905Z,101114.70
2018-05-10T17:07:18.785Z,101125.66
2018-05-10T17:09:46.486Z,101123.03
2018-05-10T17:12:14.085Z,101132.37
2018-05-10T17:14:41.777Z,101137.10
2018-05-10T17:17:09.406Z,101138.33
2018-05-10T17:19:37.039Z,101141.36
2018-05-10T17:22:04.799Z,101147.94
2018-05-10T17:24:32.485Z,101147.70
2018-05-10T17:27:00.097Z,101149.02
2018-05-10T17:29:27.861Z,101145.19
2018-05-10T17:31:55.493Z,101155.30
2018-05-10T17:34:23.161Z,101155.78
2018-05-10T17:36:50.829Z,101162.16
2018-05-10T17:39:18.459Z,101167.12
2018-05-10T17:41:46.199Z,101167.12
2018-05-10T17:44:13.838Z,101172.42
2018-05-10T17:46:41.496Z,101172.20
2018-05-10T17:49:09.167Z,101177.67
2018-05-10T17:51:36.865Z,101180.78
2018-05-10T17:54:04.492Z,101182.48
2018-05-10T17:56:32.143Z,101195.30
2018-05-10T17:58:59.784Z,101195.28
2018-05-10T18:01:27.560Z,101204.53
2018-05-10T18:03:55.784Z,101207.83
2018-05-10T18:06:23.490Z,101222.73
2018-05-10T18:08:51.112Z,101226.20
2018-05-10T18:11:18.794Z,101233.44
2018-05-10T18:13:46.657Z,101235.06
2018-05-10T18:16:14.238Z,101234.83
2018-05-10T18:18:41.896Z,101237.97
2018-05-10T18:21:09.608Z,101240.49
2018-05-10T18:23:37.259Z,101239.27
2018-05-10T18:26:04.866Z,101247.59
2018-05-10T18:28:32.529Z,101260.80
2018-05-10T18:31:00.148Z,101261.95
2018-05-10T18:33:27.907Z,101264.91
2018-05-10T18:35:55.534Z,101270.71
2018-05-10T18:38:23.170Z,101266.14
2018-05-10T18:40:50.838Z,101281.10
2018-05-10T18:43:18.533Z,101286.32
2018-05-10T18:45:46.199Z,101290.61
2018-05-10T18:48:13.863Z,101290.56
2018-05-10T18:50:41.657Z,101293.23
2018-05-10T18:53:09.333Z,101307.41
2018-05-10T18:55:36.967Z,101303.12
2018-05-10T18:58:04.578Z,101313.59
2018-05-10T19:00:32.253Z,101310.34
2018-05-10T19:02:59.891Z,101317.78
2018-05-10T19:05:27.536Z,101315.64
2018-05-10T19:07:55.152Z,101313.88
2018-05-10T19:10:22.830Z,101320.14
2018-05-10T19:12:50.498Z,101326.40
2018-05-10T19:15:18.282Z,101332.16
2018-05-10T19:17:45.805Z,101336.70
2018-05-10T19:20:13.553Z,101339.72
2018-05-10T19:22:41.261Z,101347.48
2018-05-10T19:25:08.953Z,101354.83
2018-05-10T19:27:36.601Z,101366.76
2018-05-10T19:30:04.493Z,101363.02
2018-05-10T19:32:32.226Z,101369.08
2018-05-10T19:34:59.833Z,101369.47
2018-05-10T19:37:27.482Z,101376.27
2018-05-10T19:39:55.146Z,101380.05
2018-05-10T19:42:22.796Z,101385.14
2018-05-10T19:44:50.423Z,101392.53
2018-05-10T19:47:18.097Z,101393.96
2018-05-10T19:49:45.747Z,101404.02
2018-05-10T19:52:13.386Z,101401.39
2018-05-10T19:54:41.009Z,101414.27
2018-05-10T19:57:08.657Z,101412.53
2018-05-10T19:59:36.321Z,101420.00
2018-05-10T20:02:03.955Z,101418.15
2018-05-10T20:04:31.633Z,101422.45
2018-05-10T20:06:59.285Z,101427.30
2018-05-10T20:09:26.897Z,101429.78
2018-05-10T20:11:54.569Z,101433.92
2018-05-10T20:14:22.246Z,101446.41
2018-05-10T20:16:49.889Z,101447.23
2018-05-10T20:19:17.582Z,101452.19
2018-05-10T20:21:45.204Z,101458.23
2018-05-10T20:24:12.977Z,101467.36
2018-05-10T20:26:40.607Z,101464.06
2018-05-10T20:29:08.277Z,101466.73
2018-05-10T20:31:35.894Z,101480.18
2018-05-10T20:34:03.526Z,101480.62
2018-05-10T20:36:31.234Z,101483.69
2018-05-10T20:38:58.957Z,101485.81
2018-05-10T20:41:26.594Z,101492.05
2018-05-10T20:43:54.262Z,101486.24
2018-05-10T20:46:22.007Z,101493.41
2018-05-10T20:48:49.638Z,101497.27
2018-05-10T20:51:17.294Z,101504.17
2018-05-10T20:53:45.008Z,101501.91
2018-05-10T20:56:12.638Z,101500.23
2018-05-10T20:58:40.286Z,101503.11
2018-05-10T21:01:07.923Z,101503.30
2018-05-10T21:03:35.719Z,101501.85
2018-05-10T21:06:03.425Z,101505.34
2018-05-10T21:08:31.387Z,101515.09
2018-05-10T21:10:59.029Z,101516.83
2018-05-10T21:13:26.670Z,101516.77
2018-05-10T21:15:54.375Z,101521.25
2018-05-10T21:18:22.131Z,101525.77
2018-05-10T21:20:49.762Z,101535.58
2018-05-10T21:23:17.431Z,101531.37
2018-05-10T21:25:45.046Z,101533.05
2018-05-10T21:28:12.693Z,101533.85
2018-05-10T21:30:40.630Z,101543.88
2018-05-10T21:33:08.427Z,101539.52
2018-05-10T21:35:36.188Z,101549.14
2018-05-10T21:38:04.006Z,101550.00
2018-05-10T21:40:31.801Z,101550.80
2018-05-10T21:42:59.471Z,101555.03
2018-05-10T21:45:27.157Z,101554.42
2018-05-10T21:47:54.769Z,101560.13
2018-05-10T21:50:27.320Z,101565.70
2018-05-10T21:52:54.993Z,101565.63
2018-05-10T21:55:22.761Z,101568.53
2018-05-10T21:57:50.411Z,101569.37
2018-05-10T22:00:18.031Z,101571.25
2018-05-10T22:02:45.734Z,101567.62
2018-05-10T22:05:13.348Z,101569.95
2018-05-10T22:07:41.001Z,101573.64
2018-05-10T22:10:08.661Z,101579.59
2018-05-10T22:12:36.605Z,101568.15
2018-05-10T22:15:04.312Z,101576.92
2018-05-10T22:17:32.019Z,101574.69
2018-05-10T22:19:59.763Z,101578.56
2018-05-10T22:22:27.450Z,101580.45
2018-05-10T22:24:55.290Z,101577.98
2018-05-10T22:27:23.088Z,101581.81
2018-05-10T22:29:50.783Z,101588.44
2018-05-10T22:32:18.555Z,101586.13
2018-05-10T22:34:46.413Z,101586.49
2018-05-10T22:37:14.006Z,101589.18
2018-05-10T22:39:41.679Z,101583.02
2018-05-10T22:42:09.295Z,101586.44
2018-05-10T22:44:36.945Z,101589.63
2018-05-10T22:47:04.561Z,101593.91
2018-05-10T22:49:32.248Z,101591.20
2018-05-10T22:51:59.868Z,101600.09
2018-05-10T22:54:27.493Z,101598.08
2018-05-10T22:56:55.100Z,101596.55
2018-05-10T22:59:22.773Z,101599.48
2018-05-10T23:01:50.390Z,101599.91
2018-05-10T23:04:18.090Z,101604.77
2018-05-10T23:06:45.808Z,101606.89
2018-05-10T23:09:13.449Z,101609.84
2018-05-10T23:11:41.067Z,101615.87
2018-05-10T23:14:08.720Z,101618.38
2018-05-10T23:16:36.341Z,101621.93
2018-05-10T23:19:04.142Z,101623.48
2018-05-10T23:21:31.918Z,101625.20
2018-05-10T23:23:59.577Z,101622.90
2018-05-10T23:26:27.339Z,101618.89
2018-05-10T23:28:55.136Z,101621.92
2018-05-10T23:31:23.024Z,101619.41
2018-05-10T23:33:50.736Z,101620.02
2018-05-10T23:36:18.525Z,101622.77
2018-05-10T23:38:46.280Z,101621.84
2018-05-10T23:41:14.053Z,101622.02
2018-05-10T23:43:41.684Z,101629.39
2018-05-10T23:46:09.318Z,101621.89
2018-05-10T23:48:36.970Z,101633.81
2018-05-10T23:51:04.597Z,101640.81
2018-05-10T23:53:32.230Z,101628.59
2018-05-10T23:55:59.928Z,101630.34
2018-05-10T23:58:27.539Z,101634.27
